createdAt,value
2023-03-11T00:01:11.075Z,0.60
2023-03-11T00:07:12.911Z,0.60
2023-03-11T00:13:16.460Z,0.60
2023-03-11T00:19:18.372Z,0.60
2023-03-11T00:25:21.967Z,0.50
2023-03-11T00:31:26.450Z,0.50
2023-03-11T00:37:28.994Z,0.50
2023-03-11T00:43:31.077Z,0.60
2023-03-11T00:49:33.541Z,0.60
2023-03-11T00:56:05.170Z,0.60
2023-03-11T01:02:11.966Z,0.60
2023-03-11T01:14:31.271Z,0.60
2023-03-11T01:20:33.621Z,0.60
2023-03-11T01:26:35.714Z,0.50
2023-03-11T01:32:37.456Z,0.60
2023-03-11T01:38:39.366Z,0.50
2023-03-11T01:44:41.269Z,0.60
2023-03-11T01:50:49.538Z,0.50
2023-03-11T01:56:53.760Z,0.40
2023-03-11T02:02:59.013Z,0.30
2023-03-11T02:09:01.969Z,0.40
2023-03-11T02:15:07.201Z,0.30
2023-03-11T02:21:30.471Z,0.30
2023-03-11T02:27:41.217Z,0.30
2023-03-11T02:33:46.542Z,0.30
2023-03-11T02:39:51.212Z,0.30
2023-03-11T02:45:57.361Z,0.20
2023-03-11T02:51:59.464Z,0.10
2023-03-11T02:58:03.261Z,0.00
2023-03-11T03:04:05.419Z,0.10
2023-03-11T03:10:09.606Z,0.00
2023-03-11T03:16:12.058Z,0.10
2023-03-11T03:22:14.169Z,0.20
2023-03-11T03:28:16.852Z,0.10
2023-03-11T03:34:20.768Z,0.10
2023-03-11T03:40:23.456Z,0.00
2023-03-11T03:46:27.110Z,0.00
2023-03-11T03:52:32.189Z,0.00
2023-03-11T03:58:34.633Z,0.00
2023-03-11T04:04:39.930Z,0.00
2023-03-11T04:10:44.323Z,0.00
2023-03-11T04:16:46.576Z,0.00
2023-03-11T04:22:50.009Z,0.10
2023-03-11T04:28:53.362Z,0.00
2023-03-11T04:34:55.525Z,0.00
2023-03-11T04:41:01.431Z,0.10
2023-03-11T04:47:03.931Z,0.00
2023-03-11T04:53:06.426Z,0.10
2023-03-11T04:59:09.245Z,0.10
2023-03-11T05:05:13.561Z,0.00
2023-03-11T05:11:16.630Z,0.10
2023-03-11T05:17:20.459Z,0.00
2023-03-11T05:23:24.237Z,0.00
2023-03-11T05:29:26.808Z,0.00
2023-03-11T05:35:29.527Z,0.00
2023-03-11T05:41:31.996Z,0.00
2023-03-11T05:47:34.606Z,0.00
2023-03-11T05:53:37.150Z,0.00
2023-03-11T05:59:39.384Z,0.10
2023-03-11T06:05:51.166Z,0.10
2023-03-11T06:11:54.023Z,0.10
2023-03-11T06:17:59.769Z,0.10
2023-03-11T06:24:01.735Z,0.00
2023-03-11T06:30:05.531Z,0.10
2023-03-11T06:36:17.211Z,0.20
2023-03-11T06:42:19.456Z,0.20
2023-03-11T06:48:21.567Z,0.30
2023-03-11T06:54:23.551Z,0.30
2023-03-11T07:00:26.561Z,0.30
2023-03-11T07:06:32.766Z,0.30
2023-03-11T07:12:40.859Z,0.30
2023-03-11T07:18:44.707Z,0.40
2023-03-11T07:24:48.751Z,0.40
2023-03-11T07:30:51.535Z,0.40
2023-03-11T07:36:53.329Z,0.50
2023-03-11T07:42:55.191Z,0.60
2023-03-11T07:48:57.073Z,0.60
2023-03-11T07:54:59.482Z,0.50
2023-03-11T08:01:10.588Z,0.50
2023-03-11T08:07:12.381Z,0.60
2023-03-11T08:13:14.272Z,0.70
2023-03-11T08:19:16.049Z,0.90
2023-03-11T08:25:17.882Z,1.00
2023-03-11T08:31:24.175Z,1.00
2023-03-11T08:37:26.295Z,1.10
2023-03-11T08:43:28.626Z,1.10
2023-03-11T08:49:30.865Z,1.00
2023-03-11T08:55:32.970Z,1.10
2023-03-11T09:01:34.719Z,1.30
2023-03-11T09:07:36.945Z,1.40
2023-03-11T09:13:41.101Z,1.80
2023-03-11T09:19:43.004Z,1.90
2023-03-11T09:25:45.054Z,1.90
2023-03-11T09:31:46.862Z,2.00
2023-03-11T09:37:48.638Z,2.10
2023-03-11T09:44:48.468Z,2.30
2023-03-11T09:51:15.781Z,2.20
2023-03-11T09:57:28.548Z,2.20
2023-03-11T10:03:36.028Z,2.40
2023-03-11T10:10:12.818Z,2.10
2023-03-11T10:16:25.671Z,2.40
2023-03-11T10:22:33.484Z,2.80
2023-03-11T10:28:57.650Z,2.70
2023-03-11T10:35:16.731Z,3.00
2023-03-11T10:41:24.672Z,3.50
2023-03-11T10:47:26.693Z,3.40
2023-03-11T10:53:29.088Z,3.30
2023-03-11T10:59:46.350Z,3.30
2023-03-11T11:06:02.024Z,3.90
2023-03-11T11:12:14.041Z,3.80
2023-03-11T11:18:20.992Z,3.80
2023-03-11T11:24:26.177Z,3.80
2023-03-11T11:30:29.568Z,3.90
2023-03-11T11:36:36.038Z,3.90
2023-03-11T11:42:40.226Z,4.10
2023-03-11T11:48:48.442Z,4.30
2023-03-11T11:55:12.798Z,4.50
2023-03-11T12:01:35.245Z,4.40
2023-03-11T12:07:46.127Z,4.60
2023-03-11T12:14:00.249Z,5.00
2023-03-11T12:20:11.521Z,4.60
2023-03-11T12:26:21.829Z,4.50
2023-03-11T12:32:38.796Z,5.00
2023-03-11T12:38:45.841Z,4.80
2023-03-11T12:44:49.242Z,4.50
2023-03-11T12:50:51.036Z,4.50
2023-03-11T12:57:05.026Z,5.20
2023-03-11T13:03:31.997Z,5.70
2023-03-11T13:09:33.888Z,6.00
2023-03-11T13:15:37.267Z,5.30
2023-03-11T13:21:41.269Z,5.00
2023-03-11T13:27:47.859Z,4.80
2023-03-11T13:34:01.171Z,4.90
2023-03-11T13:40:18.166Z,4.90
2023-03-11T13:46:38.371Z,5.00
2023-03-11T13:52:48.097Z,5.00
2023-03-11T13:58:49.928Z,5.00
2023-03-11T14:05:15.821Z,5.10
2023-03-11T14:11:18.030Z,4.90
2023-03-11T14:17:20.473Z,5.20
2023-03-11T14:23:23.085Z,5.00
2023-03-11T14:29:39.784Z,5.20
2023-03-11T14:35:41.658Z,5.00
2023-03-11T14:41:43.574Z,5.30
2023-03-11T14:47:49.443Z,4.80
2023-03-11T14:54:08.539Z,4.50
2023-03-11T15:00:27.726Z,4.20
2023-03-11T15:06:30.970Z,4.20
2023-03-11T15:12:35.420Z,4.30
2023-03-11T15:18:38.580Z,4.70
2023-03-11T15:24:40.693Z,5.10
2023-03-11T15:30:42.491Z,5.20
2023-03-11T15:36:50.357Z,4.90
2023-03-11T15:43:26.490Z,4.60
2023-03-11T15:49:30.159Z,4.60
2023-03-11T15:55:32.153Z,4.90
2023-03-11T16:01:33.996Z,4.80
2023-03-11T16:07:39.772Z,4.60
2023-03-11T16:13:41.963Z,4.20
2023-03-11T16:19:44.428Z,3.70
2023-03-11T16:25:50.495Z,4.40
2023-03-11T16:31:52.412Z,6.40
2023-03-11T16:37:54.318Z,8.20
2023-03-11T16:43:56.072Z,8.20
2023-03-11T16:49:57.878Z,7.80
2023-03-11T16:55:59.896Z,5.90
2023-03-11T17:02:02.638Z,4.20
2023-03-11T17:08:04.644Z,3.20
2023-03-11T17:14:15.830Z,2.70
2023-03-11T17:20:21.474Z,2.30
2023-03-11T17:26:23.876Z,1.90
2023-03-11T17:32:25.921Z,1.50
2023-03-11T17:38:29.380Z,1.30
2023-03-11T17:44:44.592Z,1.10
2023-03-11T17:50:52.136Z,0.80
2023-03-11T17:56:55.383Z,0.60
2023-03-11T18:02:57.127Z,0.30
2023-03-11T18:08:59.396Z,-0.10
2023-03-11T18:15:06.183Z,-0.50
2023-03-11T18:21:14.032Z,-0.80
2023-03-11T18:27:15.817Z,-1.10
2023-03-11T18:33:17.829Z,-1.30
2023-03-11T18:39:20.124Z,-1.30
2023-03-11T18:45:22.188Z,-1.40
2023-03-11T18:51:25.722Z,-1.40
2023-03-11T18:57:27.613Z,-1.50
2023-03-11T19:03:29.376Z,-1.60
2023-03-11T19:09:31.338Z,-1.60
2023-03-11T19:15:33.426Z,-1.80
2023-03-11T19:21:35.291Z,-1.80
2023-03-11T19:27:39.081Z,-1.90
2023-03-11T19:33:41.929Z,-1.90
2023-03-11T19:39:43.731Z,-2.00
2023-03-11T19:45:49.323Z,-2.00
2023-03-11T19:51:52.865Z,-1.90
2023-03-11T19:57:54.964Z,-2.00
2023-03-11T20:03:56.821Z,-2.00
2023-03-11T20:09:58.783Z,-2.10
2023-03-11T20:16:19.583Z,-2.10
2023-03-11T20:22:21.518Z,-2.20
2023-03-11T20:28:23.373Z,-2.30
2023-03-11T20:34:25.212Z,-2.30
2023-03-11T20:40:27.119Z,-2.30
2023-03-11T20:46:29.092Z,-2.40
2023-03-11T20:52:35.631Z,-2.50
2023-03-11T20:58:40.850Z,-2.60
2023-03-11T21:04:44.050Z,-2.60
2023-03-11T21:10:45.927Z,-2.60
2023-03-11T21:16:48.349Z,-2.60
2023-03-11T21:22:50.290Z,-2.50
2023-03-11T21:28:52.060Z,-2.60
2023-03-11T21:34:58.846Z,-2.60
2023-03-11T21:41:11.426Z,-2.60
2023-03-11T21:47:13.644Z,-2.60
2023-03-11T21:53:16.259Z,-2.80
2023-03-11T21:59:18.043Z,-2.80
2023-03-11T22:05:19.879Z,-2.90
2023-03-11T22:11:21.759Z,-2.90
2023-03-11T22:17:23.605Z,-2.90
2023-03-11T22:23:25.757Z,-3.00
2023-03-11T22:29:27.499Z,-3.00
2023-03-11T22:35:29.289Z,-3.00
2023-03-11T22:41:32.042Z,-3.10
2023-03-11T22:47:34.011Z,-3.10
2023-03-11T22:53:36.027Z,-3.10
2023-03-11T22:59:37.842Z,-3.20
2023-03-11T23:05:42.223Z,-3.30
2023-03-11T23:11:44.284Z,-3.30
2023-03-11T23:17:46.485Z,-3.20
2023-03-11T23:23:48.948Z,-3.30
2023-03-11T23:29:50.803Z,-3.30
2023-03-11T23:35:52.777Z,-3.40
2023-03-11T23:41:55.638Z,-3.40
2023-03-11T23:47:57.423Z,-3.40
2023-03-11T23:53:59.244Z,-3.40
